Terminal Aerodrome Forecast
Issued by NWS

Home | Current Version | Previous Version | Text Only | Print | Product List | Glossary On
Versions: 1 2 3 4 5 6 7 8 9 10 11 12 13 14 15 16 17
000
FTAK31 PAJN 232012 CCA
TAFAKT
TAF COR
PAKT 232012Z 2318/2418 14018G28KT 4SM RA BR SCT014 OVC023
      WS020/14045KT
     FM232200 14025G35KT 2SM RA BR BKN007 OVC015 WS020/16050KT
     FM240000 15020G30KT 3SM SHRA BR SCT007 OVC015 WS020/20045KT
     FM240500 15010KT 4SM -SHRA BR OVC015
     FM241300 15004KT P6SM OVC030
      AMD LTD TO CLD VIS AND WIND 2406/2415=

USA.gov is the U.S. government's official web portal to all federal, state and local government web resources and services.